Time;durP1;ratioP1;P1;durP2;ratioP2;P2;SDS_P1;SDS_P2;PMS_P1;PMS_P2;Temp;Humidity;BMP_temperature;BMP_pressure;BME280_temperature;BME280_humidity;BME280_pressure;Samples;Min_cycle;Max_cycle;Signal;HPM_P1;HPM_P2
2022/12/04 00:01:57;;;;;;;;;;;;;;;2.54;77.16;97815.88;5002297;28;19929;-68
2022/12/04 00:04:25;;;;;;;;;;;;;;;2.61;76.93;97810.28;5010601;28;19929;-68
2022/12/04 00:06:54;;;;;;;;;;;;;;;2.61;76.55;97800.38;4993869;28;19925;-68
2022/12/04 00:09:30;;;;;;;;;;;;;;;2.43;77.17;97792.75;5002945;28;19988;-69
2022/12/04 00:11:58;;;;;;;;;;;;;;;2.44;77.02;97791.69;5007526;28;19925;-68
2022/12/04 00:14:27;;;;;;;;;;;;;;;2.42;76.87;97777.75;5010258;28;19929;-68
2022/12/04 00:16:55;;;;;;;;;;;;;;;2.44;76.96;97772.91;5014118;28;19997;-68
2022/12/04 00:19:25;;;;;;;;;;;;;;;2.43;77.38;97759.78;4984466;28;19926;-68
2022/12/04 00:21:55;;;;;;;;;;;;;;;2.46;77.33;97753.91;5006983;28;19933;-68
2022/12/04 00:24:24;;;;;;;;;;;;;;;2.49;77.29;97764.09;5022550;28;19925;-68
2022/12/04 00:26:53;;;;;;;;;;;;;;;2.43;77.14;97774.00;4996356;28;19934;-68
2022/12/04 00:29:21;;;;;;;;;;;;;;;2.50;76.94;97774.53;5005339;28;19937;-68
2022/12/04 00:31:49;;;;;;;;;;;;;;;2.48;77.21;97778.56;5012090;28;20422;-69
2022/12/04 00:34:41;;;;;;;;;;;;;;;2.47;77.36;97776.97;5025630;28;19984;-68
2022/12/04 00:37:34;;;;;;;;;;;;;;;2.48;77.70;97775.91;5006486;28;19925;-68
2022/12/04 00:40:03;;;;;;;;;;;;;;;2.46;77.65;97767.31;4997752;28;19933;-68
2022/12/04 00:42:32;;;;;;;;;;;;;;;2.41;77.78;97768.09;5024888;28;19983;-68
2022/12/04 00:45:00;;;;;;;;;;;;;;;2.47;77.57;97756.31;5014833;28;19929;-68
2022/12/04 00:47:29;;;;;;;;;;;;;;;2.51;77.49;97757.41;5004227;28;19932;-68
2022/12/04 00:49:58;;;;;;;;;;;;;;;2.56;77.67;97757.44;5008608;28;19925;-69
2022/12/04 00:52:28;;;;;;;;;;;;;;;2.48;78.17;97763.28;5021193;28;20294;-68
2022/12/04 00:54:58;;;;;;;;;;;;;;;2.52;77.99;97759.03;5007611;28;20001;-69
2022/12/04 00:57:26;;;;;;;;;;;;;;;2.43;77.97;97741.81;4995079;28;19926;-69
2022/12/04 00:59:56;;;;;;;;;;;;;;;2.42;78.35;97742.09;5003385;28;19929;-68
2022/12/04 01:02:24;;;;;;;;;;;;;;;2.50;77.78;97733.53;5019837;28;20028;-68
2022/12/04 01:04:53;;;;;;;;;;;;;;;2.50;77.92;97728.97;5007623;28;20386;-69
2022/12/04 01:07:44;;;;;;;;;;;;;;;2.46;78.36;97735.13;5007408;28;19933;-69
2022/12/04 01:10:14;;;;;;;;;;;;;;;2.50;78.66;97728.16;5019531;28;19940;-68
2022/12/04 01:12:42;;;;;;;;;;;;;;;2.49;78.35;97727.34;5003351;28;19980;-68
2022/12/04 01:15:11;;;;;;;;;;;;;;;2.57;78.10;97737.59;4982453;28;19933;-69
2022/12/04 01:17:41;;;;;;;;;;;;;;;2.65;78.09;97735.44;5011125;28;20253;-69
2022/12/04 01:23:31;;;;;;;;;;;;;;;2.63;78.00;97739.22;4969737;28;20311;-68
2022/12/04 01:25:59;;;;;;;;;;;;;;;2.69;77.76;97736.53;4980689;28;19933;-68
2022/12/04 01:28:27;;;;;;;;;;;;;;;2.66;78.15;97742.41;5003441;28;19979;-68
2022/12/04 01:31:00;;;;;;;;;;;;;;;2.62;77.77;97731.44;4999736;28;19936;-68
2022/12/04 01:33:28;;;;;;;;;;;;;;;2.61;77.85;97732.50;4997478;28;19937;-67
2022/12/04 01:35:57;;;;;;;;;;;;;;;2.69;77.54;97731.19;4989138;28;19933;-68
2022/12/04 01:38:26;;;;;;;;;;;;;;;2.69;77.70;97736.53;4971095;28;19933;-68
2022/12/04 01:40:54;;;;;;;;;;;;;;;2.67;77.82;97736.00;4999836;28;19952;-68
2022/12/04 01:43:22;;;;;;;;;;;;;;;2.66;77.74;97729.00;4973990;28;19936;-69
2022/12/04 01:45:51;;;;;;;;;;;;;;;2.73;77.57;97737.63;4971616;28;19937;-69
2022/12/04 01:48:24;;;;;;;;;;;;;;;2.72;77.52;97736.03;4992035;28;19926;-68
2022/12/04 01:50:56;;;;;;;;;;;;;;;2.72;77.49;97731.47;4991014;28;19930;-68
2022/12/04 01:53:24;;;;;;;;;;;;;;;2.69;78.01;97725.81;4987634;28;20408;-68
2022/12/04 01:55:52;;;;;;;;;;;;;;;2.66;78.04;97720.97;4987977;28;19980;-68
2022/12/04 01:58:21;;;;;;;;;;;;;;;2.67;78.05;97725.28;4987533;28;20260;-68
2022/12/04 02:00:50;;;;;;;;;;;;;;;2.64;78.27;97718.56;4998956;28;20390;-69
2022/12/04 02:03:19;;;;;;;;;;;;;;;2.65;78.12;97725.53;5003234;28;19933;-68
2022/12/04 02:05:48;;;;;;;;;;;;;;;2.75;77.87;97730.13;5000614;28;19929;-68
2022/12/04 02:08:16;;;;;;;;;;;;;;;2.75;77.95;97722.06;4974882;28;19936;-68
2022/12/04 02:10:47;;;;;;;;;;;;;;;2.70;77.82;97727.41;5001517;28;19951;-68
2022/12/04 02:13:17;;;;;;;;;;;;;;;2.72;78.30;97734.16;4988452;28;19925;-68
2022/12/04 02:15:47;;;;;;;;;;;;;;;2.73;78.21;97732.25;4988283;28;20291;-67
2022/12/04 02:18:17;;;;;;;;;;;;;;;2.78;78.66;97732.28;4990993;28;20321;-66
2022/12/04 02:21:12;;;;;;;;;;;;;;;2.69;78.35;97728.50;4986543;28;20047;-67
2022/12/04 02:24:24;;;;;;;;;;;;;;;2.68;78.25;97737.63;4984721;28;19926;-67
2022/12/04 02:26:54;;;;;;;;;;;;;;;2.76;77.89;97737.09;4968339;28;19976;-66
2022/12/04 02:29:25;;;;;;;;;;;;;;;2.72;77.70;97736.03;4984759;28;19973;-67
2022/12/04 02:37:45;;;;;;;;;;;;;;;2.62;78.40;97736.78;4989709;28;19930;-67
2022/12/04 02:40:16;;;;;;;;;;;;;;;2.66;78.45;97737.06;4996663;28;19980;-67
2022/12/04 02:42:45;;;;;;;;;;;;;;;2.75;78.45;97740.84;5009203;28;19925;-67
2022/12/04 02:45:15;;;;;;;;;;;;;;;2.81;78.29;97740.59;4984724;28;19936;-67
2022/12/04 02:47:43;;;;;;;;;;;;;;;2.82;78.45;97730.66;4993783;28;19934;-66
2022/12/04 02:50:12;;;;;;;;;;;;;;;2.94;77.44;97730.44;4978955;28;19926;-67
2022/12/04 02:52:42;;;;;;;;;;;;;;;2.82;77.51;97733.34;4969572;28;19936;-67
2022/12/04 02:55:11;;;;;;;;;;;;;;;2.78;78.29;97724.22;4984457;28;19969;-66
2022/12/04 02:57:40;;;;;;;;;;;;;;;2.76;78.64;97711.06;4995284;28;19971;-67
2022/12/04 03:00:08;;;;;;;;;;;;;;;2.82;78.38;97714.56;4986487;28;19933;-67
2022/12/04 03:02:38;;;;;;;;;;;;;;;2.88;77.89;97714.31;4980341;28;19930;-67
2022/12/04 03:05:31;;;;;;;;;;;;;;;2.89;78.15;97721.28;4969136;28;19932;-67
2022/12/04 03:08:00;;;;;;;;;;;;;;;2.88;78.35;97719.69;4985024;28;19979;-66
2022/12/04 03:10:30;;;;;;;;;;;;;;;2.83;78.25;97721.56;4992242;28;19988;-67
2022/12/04 03:13:00;;;;;;;;;;;;;;;2.84;77.98;97718.59;4987370;28;19926;-67
2022/12/04 03:15:28;;;;;;;;;;;;;;;2.79;78.08;97715.09;4982522;28;19926;-67
2022/12/04 03:17:58;;;;;;;;;;;;;;;2.86;78.09;97702.22;4988654;28;19932;-67
2022/12/04 03:20:26;;;;;;;;;;;;;;;2.71;78.33;97700.31;4956719;28;20439;-67
2022/12/04 03:22:56;;;;;;;;;;;;;;;2.79;78.89;97699.00;5004914;28;19929;-67
2022/12/04 03:25:24;;;;;;;;;;;;;;;2.86;78.25;97694.19;5012442;28;20394;-67
2022/12/04 03:27:53;;;;;;;;;;;;;;;2.84;78.52;97690.97;5016303;28;19965;-67
2022/12/04 03:30:22;;;;;;;;;;;;;;;2.79;78.63;97689.09;4981708;28;19926;-70
2022/12/04 03:32:51;;;;;;;;;;;;;;;2.81;78.73;97681.56;4999818;28;19936;-67
2022/12/04 03:35:21;;;;;;;;;;;;;;;2.78;78.88;97684.78;5015467;28;19933;-67
2022/12/04 03:37:50;;;;;;;;;;;;;;;2.72;78.77;97677.81;4989168;28;19956;-67
2022/12/04 03:40:20;;;;;;;;;;;;;;;2.71;78.66;97676.19;5009045;28;19933;-67
2022/12/04 03:42:49;;;;;;;;;;;;;;;2.69;79.04;97675.66;5010744;28;19941;-67
2022/12/04 03:45:19;;;;;;;;;;;;;;;2.69;79.00;97672.97;5008856;28;19926;-67
2022/12/04 03:47:48;;;;;;;;;;;;;;;2.71;79.12;97670.00;5001482;28;19934;-67
2022/12/04 03:50:17;;;;;;;;;;;;;;;2.72;78.44;97671.66;4991143;28;19926;-67
2022/12/04 03:52:48;;;;;;;;;;;;;;;2.79;78.77;97664.13;5024102;28;20016;-66
2022/12/04 03:55:18;;;;;;;;;;;;;;;2.80;78.39;97669.22;4995618;28;19983;-66
2022/12/04 03:57:48;;;;;;;;;;;;;;;2.78;78.44;97660.66;5007384;28;19933;-67
2022/12/04 04:00:17;;;;;;;;;;;;;;;2.80;78.14;97663.06;5008433;28;19932;-66
2022/12/04 04:03:11;;;;;;;;;;;;;;;2.78;78.56;97675.94;5006919;28;20039;-67
2022/12/04 04:05:41;;;;;;;;;;;;;;;2.79;78.59;97667.63;4997231;28;19926;-66
2022/12/04 04:08:28;;;;;;;;;;;;;;;2.81;78.96;97670.03;5007689;28;20490;-67
2022/12/04 04:10:59;;;;;;;;;;;;;;;2.79;78.65;97661.44;5000739;28;20371;-66
2022/12/04 04:24:36;;;;;;;;;;;;;;;2.86;78.77;97651.25;4996243;28;19930;-66
2022/12/04 04:27:05;;;;;;;;;;;;;;;2.83;79.10;97659.84;5010722;28;19933;-67
2022/12/04 04:29:34;;;;;;;;;;;;;;;2.79;78.85;97656.88;4997938;28;19936;-67
2022/12/04 04:32:03;;;;;;;;;;;;;;;2.67;78.78;97653.66;4992407;28;19933;-68
2022/12/04 04:37:54;;;;;;;;;;;;;;;2.72;78.94;97650.19;5012415;28;19932;-67
2022/12/04 04:40:25;;;;;;;;;;;;;;;2.70;79.38;97655.00;5005418;28;20686;-68
2022/12/04 04:42:55;;;;;;;;;;;;;;;2.77;79.13;97653.69;5008717;28;19925;-67
2022/12/04 04:45:23;;;;;;;;;;;;;;;2.70;79.06;97652.31;4988754;28;20295;-69
2022/12/04 04:47:52;;;;;;;;;;;;;;;2.76;79.50;97656.59;5020371;28;19936;-67
2022/12/04 04:50:20;;;;;;;;;;;;;;;2.76;79.18;97665.47;5014565;28;19929;-67
2022/12/04 04:52:49;;;;;;;;;;;;;;;2.80;79.12;97658.50;4993117;28;19926;-68
2022/12/04 04:55:19;;;;;;;;;;;;;;;2.81;78.97;97660.09;5002044;28;19933;-67
2022/12/04 04:57:51;;;;;;;;;;;;;;;2.78;79.12;97663.34;5018149;28;19926;-68
2022/12/04 05:03:37;;;;;;;;;;;;;;;2.86;78.85;97683.44;5003483;28;20379;-67
2022/12/04 05:06:06;;;;;;;;;;;;;;;2.87;79.20;97685.06;5007207;28;20360;-67
2022/12/04 05:08:34;;;;;;;;;;;;;;;2.85;79.14;97685.34;4997310;28;19932;-67
2022/12/04 05:11:02;;;;;;;;;;;;;;;2.86;78.91;97681.56;4989638;28;20379;-67
2022/12/04 05:13:31;;;;;;;;;;;;;;;2.88;79.16;97687.50;5012254;28;19932;-66
2022/12/04 05:16:24;;;;;;;;;;;;;;;2.91;78.83;97686.13;5012924;28;20423;-67
2022/12/04 05:21:40;;;;;;;;;;;;;;;2.96;79.05;97679.97;4990612;28;20311;-67
2022/12/04 05:24:33;;;;;;;;;;;;;;;2.94;79.23;97680.25;5000171;28;19926;-67
2022/12/04 05:27:01;;;;;;;;;;;;;;;2.97;79.31;97681.59;5004986;28;19926;-67
2022/12/04 05:29:31;;;;;;;;;;;;;;;2.95;79.15;97675.69;5009088;28;19956;-70
2022/12/04 05:32:27;;;;;;;;;;;;;;;2.98;79.22;97675.94;5011675;28;20001;-67
2022/12/04 05:35:20;;;;;;;;;;;;;;;2.95;78.79;97681.84;5004425;28;19929;-67
2022/12/04 05:37:51;;;;;;;;;;;;;;;3.03;79.25;97686.66;5009152;28;19937;-67
2022/12/04 05:40:19;;;;;;;;;;;;;;;2.98;79.16;97692.03;5003190;28;19933;-69
2022/12/04 05:42:47;;;;;;;;;;;;;;;2.97;79.03;97687.75;5006359;28;19933;-67
2022/12/04 05:45:17;;;;;;;;;;;;;;;2.95;78.64;97681.84;4991052;28;19926;-69
2022/12/04 05:47:45;;;;;;;;;;;;;;;2.91;79.12;97679.97;5010338;28;19983;-68
2022/12/04 05:50:13;;;;;;;;;;;;;;;2.93;79.18;97684.00;5009140;28;19925;-67
2022/12/04 05:52:41;;;;;;;;;;;;;;;3.03;78.89;97692.03;5000206;28;19925;-68
2022/12/04 05:55:09;;;;;;;;;;;;;;;2.98;78.98;97686.66;5010928;28;19930;-67
2022/12/04 05:57:37;;;;;;;;;;;;;;;2.95;78.90;97679.16;5010641;28;19926;-67
2022/12/04 06:00:06;;;;;;;;;;;;;;;2.99;79.05;97688.31;4996934;28;19929;-68
2022/12/04 06:02:39;;;;;;;;;;;;;;;3.01;79.04;97696.88;5005368;28;19932;-67
2022/12/04 06:05:07;;;;;;;;;;;;;;;3.11;79.02;97696.09;5010287;28;19925;-67
2022/12/04 06:07:35;;;;;;;;;;;;;;;3.08;79.09;97702.78;5000217;28;19930;-67
2022/12/04 06:10:04;;;;;;;;;;;;;;;3.00;78.83;97705.22;5002415;28;19961;-67
2022/12/04 06:12:32;;;;;;;;;;;;;;;3.07;78.90;97700.38;5002816;28;19949;-67
2022/12/04 06:15:00;;;;;;;;;;;;;;;3.09;78.86;97703.59;5007368;28;20354;-67
2022/12/04 06:17:28;;;;;;;;;;;;;;;3.13;78.42;97708.16;5001638;28;19991;-68
2022/12/04 06:19:57;;;;;;;;;;;;;;;3.11;78.76;97707.63;4997336;28;19930;-67
2022/12/04 06:22:27;;;;;;;;;;;;;;;2.99;78.84;97709.78;4980515;28;20307;-67
2022/12/04 06:24:55;;;;;;;;;;;;;;;3.05;78.98;97708.69;4987178;28;19989;-67
2022/12/04 06:27:23;;;;;;;;;;;;;;;3.07;78.45;97711.09;4974833;28;19932;-68
2022/12/04 06:29:55;;;;;;;;;;;;;;;3.12;79.00;97717.28;4985709;28;19933;-67
2022/12/04 06:32:24;;;;;;;;;;;;;;;3.05;79.02;97702.53;4995558;28;19926;-67
2022/12/04 06:35:17;;;;;;;;;;;;;;;3.00;78.60;97700.66;4978795;28;19926;-67
2022/12/04 06:37:47;;;;;;;;;;;;;;;3.11;78.36;97698.78;4993258;28;20136;-67
2022/12/04 06:40:18;;;;;;;;;;;;;;;3.08;78.69;97692.03;4974762;28;19926;-67
2022/12/04 06:42:46;;;;;;;;;;;;;;;3.01;79.00;97696.88;4993908;28;20024;-67
2022/12/04 06:45:14;;;;;;;;;;;;;;;3.04;78.65;97701.72;4983716;28;19926;-67
2022/12/04 06:47:42;;;;;;;;;;;;;;;3.08;79.37;97704.66;4992552;28;19945;-67
2022/12/04 06:50:11;;;;;;;;;;;;;;;3.07;79.03;97705.75;4983628;28;19937;-67
2022/12/04 06:52:39;;;;;;;;;;;;;;;3.11;79.15;97706.81;4992612;28;20295;-67
2022/12/04 06:55:09;;;;;;;;;;;;;;;3.18;79.10;97714.59;4996737;28;19925;-67
2022/12/04 06:57:38;;;;;;;;;;;;;;;3.20;79.24;97720.53;4985515;28;20383;-67
2022/12/04 07:00:06;;;;;;;;;;;;;;;3.24;79.29;97706.28;4989668;28;19976;-67
2022/12/04 07:02:35;;;;;;;;;;;;;;;3.23;79.24;97714.59;4983183;28;19961;-67
2022/12/04 07:05:07;;;;;;;;;;;;;;;3.24;78.66;97722.38;4984642;28;19934;-67
2022/12/04 07:07:35;;;;;;;;;;;;;;;3.22;79.06;97723.75;4987830;28;19929;-68
2022/12/04 07:10:04;;;;;;;;;;;;;;;3.22;79.28;97707.63;4991437;28;19933;-68
2022/12/04 07:12:33;;;;;;;;;;;;;;;3.19;79.16;97708.97;4990283;28;19930;-68
2022/12/04 07:15:01;;;;;;;;;;;;;;;3.28;78.92;97704.66;4988150;28;19941;-68
2022/12/04 07:17:31;;;;;;;;;;;;;;;3.29;78.45;97700.91;4989102;28;19991;-69
2022/12/04 07:19:59;;;;;;;;;;;;;;;3.25;78.54;97696.34;4987826;28;19925;-68
2022/12/04 07:22:27;;;;;;;;;;;;;;;3.32;78.13;97683.47;4996077;28;20306;-68
2022/12/04 07:24:55;;;;;;;;;;;;;;;3.26;78.38;97668.44;5005512;28;19929;-68
2022/12/04 07:30:21;;;;;;;;;;;;;;;3.19;78.72;97671.38;5005016;28;19933;-68
2022/12/04 07:32:49;;;;;;;;;;;;;;;3.19;78.65;97666.00;5011790;28;19925;-69
2022/12/04 07:35:17;;;;;;;;;;;;;;;3.25;78.56;97664.13;5007392;28;19929;-69
2022/12/04 07:37:45;;;;;;;;;;;;;;;3.22;78.95;97665.47;5006048;28;19925;-68
2022/12/04 07:40:14;;;;;;;;;;;;;;;3.21;78.70;97663.88;5007152;28;19930;-68
2022/12/04 07:42:41;;;;;;;;;;;;;;;3.19;79.12;97665.19;5000232;28;19983;-68
2022/12/04 07:45:10;;;;;;;;;;;;;;;3.22;78.81;97664.69;4998215;28;20226;-68
2022/12/04 07:47:40;;;;;;;;;;;;;;;3.29;78.81;97657.16;5007974;28;19926;-68
2022/12/04 07:50:08;;;;;;;;;;;;;;;3.32;78.54;97662.78;5005374;28;19926;-68
2022/12/04 07:52:37;;;;;;;;;;;;;;;3.34;78.57;97667.88;4995138;28;19937;-68
2022/12/04 07:55:05;;;;;;;;;;;;;;;3.36;78.81;97671.91;5010024;28;19933;-68
2022/12/04 07:57:33;;;;;;;;;;;;;;;3.38;78.88;97677.00;5000248;28;19986;-68
2022/12/04 08:00:26;;;;;;;;;;;;;;;3.40;79.03;97680.22;4993579;28;19930;-69
2022/12/04 08:03:21;;;;;;;;;;;;;;;3.45;78.52;97680.22;5009027;28;19932;-68
2022/12/04 08:05:49;;;;;;;;;;;;;;;3.46;78.58;97681.03;5005497;28;20163;-69
2022/12/04 08:08:17;;;;;;;;;;;;;;;3.49;78.03;97686.66;5008571;28;19933;-68
2022/12/04 08:10:50;;;;;;;;;;;;;;;3.56;77.98;97687.19;5006911;28;19926;-69
2022/12/04 08:13:18;;;;;;;;;;;;;;;3.51;78.14;97683.69;5010049;28;20027;-67
2022/12/04 08:15:46;;;;;;;;;;;;;;;3.61;78.44;97679.13;5006142;28;19933;-68
2022/12/04 08:18:14;;;;;;;;;;;;;;;3.64;78.34;97688.53;5009050;28;20004;-68
2022/12/04 08:23:37;;;;;;;;;;;;;;;3.68;77.84;97703.03;5003783;28;19926;-68
2022/12/04 08:26:06;;;;;;;;;;;;;;;3.68;77.51;97694.97;5003127;28;19933;-68
2022/12/04 08:28:34;;;;;;;;;;;;;;;3.71;77.78;97682.88;5000849;28;19926;-68
2022/12/04 08:31:03;;;;;;;;;;;;;;;3.69;77.84;97675.09;4998626;28;20364;-68
2022/12/04 08:33:32;;;;;;;;;;;;;;;3.72;77.77;97679.09;5015797;28;20475;-68
2022/12/04 08:36:01;;;;;;;;;;;;;;;3.71;77.99;97691.72;5000428;28;20299;-71
2022/12/04 08:38:29;;;;;;;;;;;;;;;3.77;77.63;97692.53;4997347;28;19929;-71
2022/12/04 08:40:59;;;;;;;;;;;;;;;3.82;77.55;97685.25;4994182;28;19937;-71
2022/12/04 08:43:27;;;;;;;;;;;;;;;3.77;77.67;97679.88;4996697;28;19936;-71
2022/12/04 08:45:56;;;;;;;;;;;;;;;3.83;77.66;97686.84;5008096;28;20019;-71
2022/12/04 08:48:25;;;;;;;;;;;;;;;3.86;77.30;97689.00;4998648;28;19933;-71
2022/12/04 08:50:53;;;;;;;;;;;;;;;3.86;77.67;97693.59;4999105;28;20280;-71
2022/12/04 08:53:23;;;;;;;;;;;;;;;3.96;77.44;97690.88;4986703;28;19930;-71
2022/12/04 08:55:51;;;;;;;;;;;;;;;4.04;76.97;97684.09;4999864;28;19933;-71
2022/12/04 08:58:19;;;;;;;;;;;;;;;4.05;76.59;97683.84;4999189;28;19935;-71
2022/12/04 09:00:48;;;;;;;;;;;;;;;4.13;76.28;97691.34;5002152;28;20338;-71
2022/12/04 09:03:18;;;;;;;;;;;;;;;4.13;77.02;97691.34;5000881;28;19925;-71
2022/12/04 09:05:46;;;;;;;;;;;;;;;4.14;76.58;97692.94;5000790;28;20049;-71
2022/12/04 09:08:15;;;;;;;;;;;;;;;4.15;76.43;97683.00;4999886;28;20286;-71
2022/12/04 09:10:45;;;;;;;;;;;;;;;4.17;76.53;97705.84;4993868;28;19969;-71
2022/12/04 09:13:13;;;;;;;;;;;;;;;4.37;75.68;97709.53;4994754;28;19936;-71
2022/12/04 09:15:41;;;;;;;;;;;;;;;4.33;75.63;97700.41;5006552;28;19929;-71
2022/12/04 09:18:09;;;;;;;;;;;;;;;4.26;75.93;97716.03;5001380;28;20051;-71
2022/12/04 09:20:39;;;;;;;;;;;;;;;4.25;76.53;97709.03;4987670;28;19925;-71
2022/12/04 09:23:31;;;;;;;;;;;;;;;4.24;76.61;97707.44;5001576;28;19933;-71
2022/12/04 09:26:01;;;;;;;;;;;;;;;4.38;75.96;97698.50;4981426;28;20024;-71
2022/12/04 09:28:29;;;;;;;;;;;;;;;4.35;76.20;97685.59;5000931;28;19925;-71
2022/12/04 09:30:59;;;;;;;;;;;;;;;4.46;75.94;97683.66;4988413;28;19929;-71
2022/12/04 09:33:29;;;;;;;;;;;;;;;4.47;75.97;97675.34;4999710;28;19925;-70
2022/12/04 09:35:58;;;;;;;;;;;;;;;4.52;75.77;97673.69;5007890;28;20387;-71
2022/12/04 09:38:27;;;;;;;;;;;;;;;4.47;75.63;97672.66;5007253;28;19925;-71
2022/12/04 09:40:58;;;;;;;;;;;;;;;4.54;75.90;97675.03;5002113;28;19984;-71
2022/12/04 09:43:29;;;;;;;;;;;;;;;4.51;75.53;97675.56;5001120;28;19925;-69
2022/12/04 09:45:58;;;;;;;;;;;;;;;4.59;75.73;97672.31;4985887;28;19925;-70
2022/12/04 09:48:28;;;;;;;;;;;;;;;4.68;75.50;97669.81;5002256;28;19925;-70
2022/12/04 09:50:57;;;;;;;;;;;;;;;4.92;75.32;97656.47;5004843;28;19926;-71
2022/12/04 09:53:25;;;;;;;;;;;;;;;4.96;74.17;97654.84;5006301;28;19925;-70
2022/12/04 09:55:59;;;;;;;;;;;;;;;5.00;74.35;97650.47;5002171;28;19956;-71
2022/12/04 09:58:55;;;;;;;;;;;;;;;5.00;74.35;97645.09;5007914;28;19932;-70
2022/12/04 10:01:24;;;;;;;;;;;;;;;4.88;74.58;97652.72;5005547;28;20272;-70
2022/12/04 10:03:52;;;;;;;;;;;;;;;4.99;74.43;97648.88;5005748;28;19934;-70
2022/12/04 10:06:22;;;;;;;;;;;;;;;4.92;74.19;97643.00;5008275;28;20009;-70
2022/12/04 10:08:51;;;;;;;;;;;;;;;4.91;73.95;97650.28;4981095;28;19926;-71
2022/12/04 10:11:20;;;;;;;;;;;;;;;4.84;74.51;97646.28;5008483;28;20378;-71
2022/12/04 10:13:53;;;;;;;;;;;;;;;4.86;74.82;97644.13;5017788;28;19929;-70
2022/12/04 10:16:27;;;;;;;;;;;;;;;4.96;74.68;97649.44;4976929;28;19933;-70
2022/12/04 10:18:58;;;;;;;;;;;;;;;4.89;74.40;97643.56;5005383;28;20310;-70
2022/12/04 10:21:36;;;;;;;;;;;;;;;5.00;74.61;97635.13;4986745;28;19926;-70
2022/12/04 10:24:09;;;;;;;;;;;;;;;5.00;74.41;97645.09;5003650;28;20318;-70
2022/12/04 10:26:38;;;;;;;;;;;;;;;5.08;74.67;97632.94;5004323;28;19934;-70
2022/12/04 10:29:06;;;;;;;;;;;;;;;5.17;74.50;97633.94;5015463;28;20246;-70
2022/12/04 10:31:36;;;;;;;;;;;;;;;5.30;73.78;97627.88;5009669;28;19930;-71
2022/12/04 10:34:05;;;;;;;;;;;;;;;5.35;73.58;97619.75;5005390;28;19926;-71
2022/12/04 10:36:35;;;;;;;;;;;;;;;5.35;73.71;97613.56;4990524;28;20372;-71
2022/12/04 10:39:06;;;;;;;;;;;;;;;5.37;73.33;97603.28;5008828;28;20395;-71
2022/12/04 10:41:59;;;;;;;;;;;;;;;5.34;73.29;97606.56;5024993;28;19925;-71
2022/12/04 10:44:28;;;;;;;;;;;;;;;5.23;73.46;97595.91;5019493;28;20012;-71
2022/12/04 10:46:58;;;;;;;;;;;;;;;5.20;73.66;97591.06;5021097;28;19983;-71
2022/12/04 10:49:27;;;;;;;;;;;;;;;5.30;73.91;97602.84;5014744;28;20019;-71
2022/12/04 10:51:55;;;;;;;;;;;;;;;5.26;73.90;97595.31;5016439;28;19926;-70
2022/12/04 10:54:25;;;;;;;;;;;;;;;5.21;74.25;97587.28;5016377;28;19937;-71
2022/12/04 10:56:56;;;;;;;;;;;;;;;5.30;73.70;97582.09;5014380;28;19971;-71
2022/12/04 10:59:24;;;;;;;;;;;;;;;5.33;73.56;97575.34;5011053;28;20385;-71
2022/12/04 11:01:58;;;;;;;;;;;;;;;5.19;74.06;97578.69;5016947;28;19925;-70
2022/12/04 11:04:34;;;;;;;;;;;;;;;5.19;74.33;97573.31;5006224;28;19934;-70
2022/12/04 11:07:03;;;;;;;;;;;;;;;5.20;74.04;97569.53;4998606;28;20020;-71
2022/12/04 11:09:31;;;;;;;;;;;;;;;5.25;74.39;97555.19;5002701;28;19929;-70
2022/12/04 11:12:07;;;;;;;;;;;;;;;5.22;74.32;97553.91;5018888;28;19972;-70
2022/12/04 11:14:35;;;;;;;;;;;;;;;5.31;74.45;97548.66;5003682;28;20283;-71
2022/12/04 11:17:30;;;;;;;;;;;;;;;5.32;73.91;97554.84;5019267;28;20025;-70
2022/12/04 11:20:00;;;;;;;;;;;;;;;5.33;74.89;97551.91;5003640;28;20647;-71
2022/12/04 11:22:29;;;;;;;;;;;;;;;5.43;74.56;97553.66;5000896;28;19933;-71
2022/12/04 11:25:00;;;;;;;;;;;;;;;5.39;74.38;97556.13;4992472;28;19929;-71
2022/12/04 11:27:31;;;;;;;;;;;;;;;5.39;73.91;97556.13;5002915;28;19933;-71
2022/12/04 11:30:00;;;;;;;;;;;;;;;5.45;74.24;97548.81;5007826;28;19925;-71
2022/12/04 11:32:29;;;;;;;;;;;;;;;5.43;73.92;97534.78;5006135;28;19941;-71
2022/12/04 11:37:56;;;;;;;;;;;;;;;5.42;73.85;97534.00;5016762;28;20275;-71
2022/12/04 11:40:49;;;;;;;;;;;;;;;5.48;73.92;97532.84;5012147;28;19929;-71
2022/12/04 11:43:17;;;;;;;;;;;;;;;5.41;73.88;97543.16;5012082;28;19925;-71
2022/12/04 11:45:53;;;;;;;;;;;;;;;5.40;74.37;97546.16;5006511;28;19926;-71
2022/12/04 11:48:22;;;;;;;;;;;;;;;5.43;75.02;97538.31;5005867;28;19972;-70
2022/12/04 11:50:52;;;;;;;;;;;;;;;5.49;74.58;97544.44;5008741;28;19929;-70
2022/12/04 11:53:23;;;;;;;;;;;;;;;5.38;74.53;97542.94;4996728;28;20002;-70
2022/12/04 11:56:12;;;;;;;;;;;;;;;5.43;74.47;97542.88;5007045;28;19930;-70
2022/12/04 11:58:51;;;;;;;;;;;;;;;5.51;75.48;97544.94;5013701;28;19936;-70
2022/12/04 12:04:43;;;;;;;;;;;;;;;5.50;74.50;97533.38;5002938;28;19929;-70
2022/12/04 12:07:14;;;;;;;;;;;;;;;5.51;74.70;97539.56;5006360;28;19929;-70
2022/12/04 12:09:45;;;;;;;;;;;;;;;5.59;74.73;97535.41;4986054;28;19929;-71
2022/12/04 12:12:14;;;;;;;;;;;;;;;5.59;74.49;97533.53;5004347;28;19925;-70
2022/12/04 12:14:43;;;;;;;;;;;;;;;5.64;74.14;97525.38;5002819;28;20216;-70
2022/12/04 12:17:39;;;;;;;;;;;;;;;5.67;74.54;97519.44;5008488;28;19953;-70
2022/12/04 12:20:14;;;;;;;;;;;;;;;5.69;74.83;97521.81;5014169;28;20390;-70
2022/12/04 12:22:52;;;;;;;;;;;;;;;5.70;74.58;97512.63;4996346;28;19930;-70
2022/12/04 12:25:22;;;;;;;;;;;;;;;5.69;75.08;97501.06;5001863;28;19980;-69
2022/12/04 12:27:52;;;;;;;;;;;;;;;5.66;75.00;97501.66;5010970;28;19925;-70
2022/12/04 12:30:21;;;;;;;;;;;;;;;5.59;74.92;97500.38;5005511;28;19929;-70
2022/12/04 12:32:58;;;;;;;;;;;;;;;5.68;74.56;97496.75;4985848;28;19933;-70
2022/12/04 12:35:27;;;;;;;;;;;;;;;5.72;74.99;97499.69;4994523;28;19957;-70
2022/12/04 12:37:56;;;;;;;;;;;;;;;5.76;74.60;97500.72;5007749;28;19937;-70
2022/12/04 12:40:29;;;;;;;;;;;;;;;5.75;74.84;97502.63;5004223;28;19926;-71
2022/12/04 12:43:00;;;;;;;;;;;;;;;5.82;74.74;97498.75;5001049;28;20337;-71
2022/12/04 12:45:29;;;;;;;;;;;;;;;5.79;75.05;97495.53;5005186;28;19933;-71
2022/12/04 12:47:59;;;;;;;;;;;;;;;5.81;74.50;97497.16;5015501;28;19977;-70
2022/12/04 12:50:28;;;;;;;;;;;;;;;5.73;74.56;97502.09;5011271;28;20294;-71
2022/12/04 12:52:57;;;;;;;;;;;;;;;5.79;74.49;97506.31;4999277;28;19965;-70
2022/12/04 12:55:52;;;;;;;;;;;;;;;5.81;75.06;97502.56;5008734;28;19929;-70
2022/12/04 12:58:25;;;;;;;;;;;;;;;5.73;74.72;97499.41;5006223;28;19955;-70
2022/12/04 13:00:55;;;;;;;;;;;;;;;5.75;74.98;97499.09;5009425;28;20393;-70
2022/12/04 13:03:49;;;;;;;;;;;;;;;5.74;75.05;97503.69;4997237;28;19950;-71
2022/12/04 13:06:19;;;;;;;;;;;;;;;5.75;74.58;97489.16;5012865;28;19980;-70
2022/12/04 13:08:51;;;;;;;;;;;;;;;5.70;74.62;97481.13;4994902;28;20395;-71
2022/12/04 13:11:21;;;;;;;;;;;;;;;5.70;74.82;97491.06;4997495;28;19925;-70
2022/12/04 13:13:51;;;;;;;;;;;;;;;5.72;74.69;97489.72;5022935;28;19960;-70
2022/12/04 13:16:20;;;;;;;;;;;;;;;5.78;74.40;97485.06;5008380;28;20303;-71
2022/12/04 13:19:13;;;;;;;;;;;;;;;5.83;74.60;97489.59;5012106;28;20051;-70
2022/12/04 13:21:43;;;;;;;;;;;;;;;5.78;74.52;97477.78;5001229;28;19949;-71
2022/12/04 13:24:31;;;;;;;;;;;;;;;5.91;74.59;97480.81;4987534;28;19930;-68
2022/12/04 13:27:03;;;;;;;;;;;;;;;5.92;74.44;97469.81;5004344;28;19937;-68
2022/12/04 13:29:37;;;;;;;;;;;;;;;5.93;74.08;97457.13;5007740;28;20301;-71
2022/12/04 13:35:26;;;;;;;;;;;;;;;5.65;74.60;97451.56;5007840;28;20474;-72
2022/12/04 13:37:59;;;;;;;;;;;;;;;5.79;75.91;97460.50;5015447;28;19925;-71
2022/12/04 13:40:34;;;;;;;;;;;;;;;5.71;74.83;97453.09;5009316;28;20008;-71
2022/12/04 13:43:19;;;;;;;;;;;;;;;5.79;74.62;97465.88;5011770;28;19930;-71
2022/12/04 13:45:48;;;;;;;;;;;;;;;5.83;75.01;97462.63;4990092;28;19930;-72
2022/12/04 13:48:31;;;;;;;;;;;;;;;5.84;74.75;97464.22;5011557;28;20373;-72
2022/12/04 13:51:04;;;;;;;;;;;;;;;5.78;74.75;97453.50;4985190;28;19978;-74
2022/12/04 13:53:34;;;;;;;;;;;;;;;5.79;74.77;97449.72;5003453;28;20358;-71
2022/12/04 13:59:00;;;;;;;;;;;;;;;5.88;74.56;97451.78;4998025;28;20389;-70
2022/12/04 14:01:53;;;;;;;;;;;;;;;5.82;74.82;97450.25;5000796;28;19933;-70
2022/12/04 14:04:25;;;;;;;;;;;;;;;5.77;74.52;97438.44;4994730;28;20435;-70
2022/12/04 14:06:53;;;;;;;;;;;;;;;5.79;74.91;97443.53;5003104;28;19933;-70
2022/12/04 14:09:21;;;;;;;;;;;;;;;5.76;75.12;97441.44;5000858;28;19932;-70